sensor_id;sensor_type;location;lat;lon;timestamp;pressure;altitude;pressure_sealevel;temperature;humidity
47082;BME280;33066;49.296;14.470;2023-03-01T00:00:48;97917.55;;;6.16;30.74
47082;BME280;33066;49.296;14.470;2023-03-01T00:03:14;97922.23;;;6.20;30.60
47082;BME280;33066;49.296;14.470;2023-03-01T00:05:44;97927.84;;;5.80;30.72
47082;BME280;33066;49.296;14.470;2023-03-01T00:08:04;97930.41;;;6.02;30.77
47082;BME280;33066;49.296;14.470;2023-03-01T00:10:30;97930.09;;;5.95;30.91
47082;BME280;33066;49.296;14.470;2023-03-01T00:12:55;97928.07;;;5.94;30.88
47082;BME280;33066;49.296;14.470;2023-03-01T00:15:20;97926.65;;;5.93;30.87
47082;BME280;33066;49.296;14.470;2023-03-01T00:17:46;97928.67;;;6.18;30.95
47082;BME280;33066;49.296;14.470;2023-03-01T00:20:12;97925.84;;;6.22;30.90
47082;BME280;33066;49.296;14.470;2023-03-01T00:22:37;97925.25;;;5.94;30.91
47082;BME280;33066;49.296;14.470;2023-03-01T00:25:02;97923.25;;;5.98;30.91
47082;BME280;33066;49.296;14.470;2023-03-01T00:27:28;97918.85;;;6.47;31.09
47082;BME280;33066;49.296;14.470;2023-03-01T00:29:53;97915.71;;;6.10;31.15
47082;BME280;33066;49.296;14.470;2023-03-01T00:32:19;97914.52;;;5.86;31.14
47082;BME280;33066;49.296;14.470;2023-03-01T00:34:45;97920.44;;;6.09;31.12
47082;BME280;33066;49.296;14.470;2023-03-01T00:37:10;97918.48;;;5.99;31.13
47082;BME280;33066;49.296;14.470;2023-03-01T00:39:35;97916.87;;;5.87;31.29
47082;BME280;33066;49.296;14.470;2023-03-01T00:42:01;97915.56;;;6.08;31.23
47082;BME280;33066;49.296;14.470;2023-03-01T00:44:26;97913.75;;;6.29;31.25
47082;BME280;33066;49.296;14.470;2023-03-01T00:46:52;97913.68;;;5.76;31.25
47082;BME280;33066;49.296;14.470;2023-03-01T00:49:17;97913.22;;;5.82;31.22
47082;BME280;33066;49.296;14.470;2023-03-01T00:51:43;97909.42;;;5.76;31.29
47082;BME280;33066;49.296;14.470;2023-03-01T00:54:08;97908.49;;;5.72;31.33
47082;BME280;33066;49.296;14.470;2023-03-01T00:56:34;97908.79;;;6.19;31.37
47082;BME280;33066;49.296;14.470;2023-03-01T00:58:59;97900.93;;;5.91;31.37
47082;BME280;33066;49.296;14.470;2023-03-01T01:01:26;97896.15;;;5.95;31.33
47082;BME280;33066;49.296;14.470;2023-03-01T01:03:51;97893.81;;;5.64;31.33
47082;BME280;33066;49.296;14.470;2023-03-01T01:06:17;97888.12;;;5.58;31.36
47082;BME280;33066;49.296;14.470;2023-03-01T01:08:40;97883.82;;;5.98;31.43
47082;BME280;33066;49.296;14.470;2023-03-01T01:11:05;97881.41;;;5.65;31.62
47082;BME280;33066;49.296;14.470;2023-03-01T01:13:31;97879.81;;;5.63;31.72
47082;BME280;33066;49.296;14.470;2023-03-01T01:16:00;97879.66;;;5.60;31.69
47082;BME280;33066;49.296;14.470;2023-03-01T01:18:21;97878.55;;;5.34;31.74
47082;BME280;33066;49.296;14.470;2023-03-01T01:20:46;97879.72;;;5.56;31.76
47082;BME280;33066;49.296;14.470;2023-03-01T01:23:11;97873.06;;;5.75;31.76
47082;BME280;33066;49.296;14.470;2023-03-01T01:25:37;97865.72;;;5.68;31.88
47082;BME280;33066;49.296;14.470;2023-03-01T01:28:03;97861.16;;;5.41;31.89
47082;BME280;33066;49.296;14.470;2023-03-01T01:30:28;97861.72;;;5.72;31.79
47082;BME280;33066;49.296;14.470;2023-03-01T01:32:54;97860.52;;;5.52;31.73
47082;BME280;33066;49.296;14.470;2023-03-01T01:35:19;97856.42;;;5.43;31.72
47082;BME280;33066;49.296;14.470;2023-03-01T01:37:44;97861.65;;;5.64;31.69
47082;BME280;33066;49.296;14.470;2023-03-01T01:40:11;97863.37;;;5.66;31.85
47082;BME280;33066;49.296;14.470;2023-03-01T01:42:35;97864.87;;;5.77;31.67
47082;BME280;33066;49.296;14.470;2023-03-01T01:47:31;97859.85;;;5.46;31.73
47082;BME280;33066;49.296;14.470;2023-03-01T01:49:54;97858.04;;;5.68;31.78
47082;BME280;33066;49.296;14.470;2023-03-01T01:52:19;97858.03;;;5.25;31.63
47082;BME280;33066;49.296;14.470;2023-03-01T01:54:47;97855.17;;;5.47;31.50
47082;BME280;33066;49.296;14.470;2023-03-01T01:57:13;97855.27;;;5.27;31.48
47082;BME280;33066;49.296;14.470;2023-03-01T01:59:34;97853.38;;;5.70;31.58
47082;BME280;33066;49.296;14.470;2023-03-01T02:02:00;97848.92;;;5.68;31.68
47082;BME280;33066;49.296;14.470;2023-03-01T02:04:24;97849.28;;;5.67;31.73
47082;BME280;33066;49.296;14.470;2023-03-01T02:06:53;97848.82;;;5.32;31.94
47082;BME280;33066;49.296;14.470;2023-03-01T02:09:15;97844.73;;;5.25;31.87
47082;BME280;33066;49.296;14.470;2023-03-01T02:11:40;97841.29;;;5.42;31.83
47082;BME280;33066;49.296;14.470;2023-03-01T02:14:05;97837.32;;;5.32;32.03
47082;BME280;33066;49.296;14.470;2023-03-01T02:16:30;97836.10;;;5.33;31.99
47082;BME280;33066;49.296;14.470;2023-03-01T02:18:56;97833.12;;;5.15;32.17
47082;BME280;33066;49.296;14.470;2023-03-01T02:21:31;97832.85;;;5.15;32.15
47082;BME280;33066;49.296;14.470;2023-03-01T02:23:47;97835.41;;;5.15;32.21
47082;BME280;33066;49.296;14.470;2023-03-01T02:26:18;97832.87;;;5.37;32.19
47082;BME280;33066;49.296;14.470;2023-03-01T02:28:40;97834.57;;;5.16;32.24
47082;BME280;33066;49.296;14.470;2023-03-01T02:31:07;97839.25;;;5.12;32.25
47082;BME280;33066;49.296;14.470;2023-03-01T02:33:31;97840.81;;;5.04;32.32
47082;BME280;33066;49.296;14.470;2023-03-01T02:35:55;97840.97;;;5.03;32.33
47082;BME280;33066;49.296;14.470;2023-03-01T02:38:21;97840.00;;;5.04;32.23
47082;BME280;33066;49.296;14.470;2023-03-01T02:40:47;97839.47;;;4.96;32.30
47082;BME280;33066;49.296;14.470;2023-03-01T02:43:12;97841.34;;;4.84;32.39
47082;BME280;33066;49.296;14.470;2023-03-01T02:45:37;97836.12;;;5.10;32.40
47082;BME280;33066;49.296;14.470;2023-03-01T02:48:03;97840.33;;;5.03;32.43
47082;BME280;33066;49.296;14.470;2023-03-01T02:50:41;97840.84;;;5.03;32.44
47082;BME280;33066;49.296;14.470;2023-03-01T02:52:56;97844.32;;;4.80;32.45
47082;BME280;33066;49.296;14.470;2023-03-01T02:55:18;97848.94;;;4.86;32.39
47082;BME280;33066;49.296;14.470;2023-03-01T02:57:45;97847.41;;;4.93;32.31
47082;BME280;33066;49.296;14.470;2023-03-01T03:00:12;97849.80;;;5.16;32.23
47082;BME280;33066;49.296;14.470;2023-03-01T03:02:35;97850.87;;;5.21;32.20
47082;BME280;33066;49.296;14.470;2023-03-01T03:04:59;97852.37;;;4.88;32.17
47082;BME280;33066;49.296;14.470;2023-03-01T03:07:25;97848.98;;;5.00;32.29
47082;BME280;33066;49.296;14.470;2023-03-01T03:09:51;97848.51;;;4.93;32.38
47082;BME280;33066;49.296;14.470;2023-03-01T03:12:16;97845.93;;;4.84;32.52
47082;BME280;33066;49.296;14.470;2023-03-01T03:14:41;97848.30;;;4.82;32.59
47082;BME280;33066;49.296;14.470;2023-03-01T03:17:06;97853.06;;;4.62;32.57
47082;BME280;33066;49.296;14.470;2023-03-01T03:19:32;97854.56;;;4.69;32.52
47082;BME280;33066;49.296;14.470;2023-03-01T03:21:57;97849.91;;;4.89;32.48
47082;BME280;33066;49.296;14.470;2023-03-01T03:24:22;97847.67;;;4.88;32.51
47082;BME280;33066;49.296;14.470;2023-03-01T03:26:48;97841.64;;;4.65;32.50
47082;BME280;33066;49.296;14.470;2023-03-01T03:29:13;97841.29;;;4.84;32.58
47082;BME280;33066;49.296;14.470;2023-03-01T03:31:38;97841.80;;;4.61;32.54
47082;BME280;33066;49.296;14.470;2023-03-01T03:34:04;97840.49;;;4.83;32.55
47082;BME280;33066;49.296;14.470;2023-03-01T03:36:29;97835.07;;;4.55;32.50
47082;BME280;33066;49.296;14.470;2023-03-01T03:38:55;97833.59;;;4.78;32.49
47082;BME280;33066;49.296;14.470;2023-03-01T03:41:20;97831.80;;;4.80;32.47
47082;BME280;33066;49.296;14.470;2023-03-01T03:43:46;97834.25;;;4.70;32.59
47082;BME280;33066;49.296;14.470;2023-03-01T03:46:12;97832.96;;;4.64;32.71
47082;BME280;33066;49.296;14.470;2023-03-01T03:48:40;97833.36;;;5.00;32.67
47082;BME280;33066;49.296;14.470;2023-03-01T03:51:02;97826.67;;;4.80;32.58
47082;BME280;33066;49.296;14.470;2023-03-01T03:53:28;97824.99;;;4.83;32.50
47082;BME280;33066;49.296;14.470;2023-03-01T03:55:53;97829.89;;;4.78;32.53
47082;BME280;33066;49.296;14.470;2023-03-01T03:58:19;97833.24;;;4.52;32.55
47082;BME280;33066;49.296;14.470;2023-03-01T04:00:45;97833.25;;;4.72;32.62
47082;BME280;33066;49.296;14.470;2023-03-01T04:03:09;97833.64;;;4.41;32.63
47082;BME280;33066;49.296;14.470;2023-03-01T04:05:36;97835.33;;;4.85;32.63
47082;BME280;33066;49.296;14.470;2023-03-01T04:08:00;97835.18;;;4.39;32.59
47082;BME280;33066;49.296;14.470;2023-03-01T04:12:59;97830.50;;;5.01;32.17
47082;BME280;33066;49.296;14.470;2023-03-01T04:15:26;97831.19;;;4.65;32.14
47082;BME280;33066;49.296;14.470;2023-03-01T04:17:52;97831.68;;;4.78;32.44
47082;BME280;33066;49.296;14.470;2023-03-01T04:20:18;97828.97;;;4.83;32.39
47082;BME280;33066;49.296;14.470;2023-03-01T04:22:43;97826.70;;;4.77;32.39
47082;BME280;33066;49.296;14.470;2023-03-01T04:25:08;97822.02;;;4.65;32.59
47082;BME280;33066;49.296;14.470;2023-03-01T04:27:33;97817.83;;;4.57;32.42
47082;BME280;33066;49.296;14.470;2023-03-01T04:29:58;97814.15;;;4.83;32.42
47082;BME280;33066;49.296;14.470;2023-03-01T04:32:24;97817.90;;;4.78;32.45
47082;BME280;33066;49.296;14.470;2023-03-01T04:34:49;97817.94;;;4.77;32.42
47082;BME280;33066;49.296;14.470;2023-03-01T04:37:14;97819.68;;;4.67;32.41
47082;BME280;33066;49.296;14.470;2023-03-01T04:39:39;97816.43;;;4.45;32.36
47082;BME280;33066;49.296;14.470;2023-03-01T04:42:05;97815.20;;;4.67;32.36
47082;BME280;33066;49.296;14.470;2023-03-01T04:44:30;97810.71;;;4.67;32.31
47082;BME280;33066;49.296;14.470;2023-03-01T04:46:55;97809.66;;;4.40;32.41
47082;BME280;33066;49.296;14.470;2023-03-01T04:49:21;97810.41;;;4.65;32.41
47082;BME280;33066;49.296;14.470;2023-03-01T04:51:46;97810.81;;;4.59;32.41
47082;BME280;33066;49.296;14.470;2023-03-01T04:54:12;97812.22;;;4.67;32.37
47082;BME280;33066;49.296;14.470;2023-03-01T04:56:38;97807.86;;;4.61;32.38
47082;BME280;33066;49.296;14.470;2023-03-01T04:59:03;97806.32;;;4.51;32.45
47082;BME280;33066;49.296;14.470;2023-03-01T05:01:29;97803.18;;;4.71;32.55
47082;BME280;33066;49.296;14.470;2023-03-01T05:03:54;97807.27;;;4.52;34.15
47082;BME280;33066;49.296;14.470;2023-03-01T05:06:20;97812.26;;;4.74;34.75
47082;BME280;33066;49.296;14.470;2023-03-01T05:08:45;97816.87;;;4.50;35.34
47082;BME280;33066;49.296;14.470;2023-03-01T05:11:11;97818.96;;;4.52;35.08
47082;BME280;33066;49.296;14.470;2023-03-01T05:13:37;97819.17;;;4.49;35.12
47082;BME280;33066;49.296;14.470;2023-03-01T05:16:03;97820.44;;;4.25;35.13
47082;BME280;33066;49.296;14.470;2023-03-01T05:18:28;97813.49;;;4.46;35.17
47082;BME280;33066;49.296;14.470;2023-03-01T05:20:53;97810.86;;;4.40;35.22
47082;BME280;33066;49.296;14.470;2023-03-01T05:23:18;97808.54;;;4.43;35.68
47082;BME280;33066;49.296;14.470;2023-03-01T05:25:44;97808.22;;;4.52;35.60
47082;BME280;33066;49.296;14.470;2023-03-01T05:28:11;97808.78;;;4.61;35.31
47082;BME280;33066;49.296;14.470;2023-03-01T05:30:36;97812.13;;;4.71;34.88
47082;BME280;33066;49.296;14.470;2023-03-01T05:33:02;97808.71;;;4.76;34.52
47082;BME280;33066;49.296;14.470;2023-03-01T05:35:27;97800.95;;;4.80;34.53
47082;BME280;33066;49.296;14.470;2023-03-01T05:37:52;97803.81;;;4.80;33.91
47082;BME280;33066;49.296;14.470;2023-03-01T05:40:20;97805.52;;;4.73;34.03
47082;BME280;33066;49.296;14.470;2023-03-01T05:42:44;97805.96;;;4.76;34.08
47082;BME280;33066;49.296;14.470;2023-03-01T05:45:10;97805.69;;;4.46;34.10
47082;BME280;33066;49.296;14.470;2023-03-01T05:47:34;97801.57;;;4.65;32.97
47082;BME280;33066;49.296;14.470;2023-03-01T05:50:00;97799.10;;;4.63;33.34
47082;BME280;33066;49.296;14.470;2023-03-01T05:52:25;97802.44;;;4.58;33.92
47082;BME280;33066;49.296;14.470;2023-03-01T05:54:51;97804.25;;;4.57;33.74
47082;BME280;33066;49.296;14.470;2023-03-01T05:57:16;97805.13;;;4.51;33.96
47082;BME280;33066;49.296;14.470;2023-03-01T05:59:42;97807.65;;;4.45;34.08
47082;BME280;33066;49.296;14.470;2023-03-01T06:02:08;97806.88;;;4.17;33.50
47082;BME280;33066;49.296;14.470;2023-03-01T06:04:33;97805.05;;;4.45;33.08
47082;BME280;33066;49.296;14.470;2023-03-01T06:06:58;97806.18;;;4.45;32.87
47082;BME280;33066;49.296;14.470;2023-03-01T06:09:23;97808.72;;;4.45;32.84
47082;BME280;33066;49.296;14.470;2023-03-01T06:11:49;97807.16;;;4.59;32.64
47082;BME280;33066;49.296;14.470;2023-03-01T06:14:14;97809.74;;;4.46;32.52
47082;BME280;33066;49.296;14.470;2023-03-01T06:16:40;97809.31;;;4.73;32.37
47082;BME280;33066;49.296;14.470;2023-03-01T06:19:05;97812.85;;;4.64;32.28
47082;BME280;33066;49.296;14.470;2023-03-01T06:21:31;97817.20;;;4.60;32.42
47082;BME280;33066;49.296;14.470;2023-03-01T06:23:57;97815.41;;;4.35;32.46
47082;BME280;33066;49.296;14.470;2023-03-01T06:26:22;97811.12;;;4.71;32.06
47082;BME280;33066;49.296;14.470;2023-03-01T06:28:47;97810.62;;;4.65;32.18
47082;BME280;33066;49.296;14.470;2023-03-01T06:31:12;97809.54;;;4.68;32.23
47082;BME280;33066;49.296;14.470;2023-03-01T06:33:37;97806.71;;;4.85;32.43
47082;BME280;33066;49.296;14.470;2023-03-01T06:36:03;97802.69;;;4.64;32.63
47082;BME280;33066;49.296;14.470;2023-03-01T06:38:28;97799.46;;;4.97;32.66
47082;BME280;33066;49.296;14.470;2023-03-01T06:40:54;97795.96;;;5.11;33.70
47082;BME280;33066;49.296;14.470;2023-03-01T06:43:18;97793.86;;;5.04;33.53
47082;BME280;33066;49.296;14.470;2023-03-01T06:45:44;97798.66;;;5.09;32.78
47082;BME280;33066;49.296;14.470;2023-03-01T06:48:10;97800.55;;;5.02;32.46
47082;BME280;33066;49.296;14.470;2023-03-01T06:50:35;97799.58;;;4.89;32.67
47082;BME280;33066;49.296;14.470;2023-03-01T06:53:01;97806.20;;;4.93;32.30
47082;BME280;33066;49.296;14.470;2023-03-01T06:55:26;97805.83;;;5.20;32.29
47082;BME280;33066;49.296;14.470;2023-03-01T06:57:55;97803.74;;;5.04;32.18
47082;BME280;33066;49.296;14.470;2023-03-01T07:00:18;97806.41;;;5.15;32.10
47082;BME280;33066;49.296;14.470;2023-03-01T07:02:43;97800.62;;;5.18;32.87
47082;BME280;33066;49.296;14.470;2023-03-01T07:05:08;97795.03;;;5.36;34.35
47082;BME280;33066;49.296;14.470;2023-03-01T07:07:33;97793.35;;;5.46;34.69
47082;BME280;33066;49.296;14.470;2023-03-01T07:09:59;97796.09;;;5.55;34.09
47082;BME280;33066;49.296;14.470;2023-03-01T07:12:25;97799.15;;;5.66;32.89
47082;BME280;33066;49.296;14.470;2023-03-01T07:14:50;97798.16;;;5.76;33.27
47082;BME280;33066;49.296;14.470;2023-03-01T07:17:15;97804.08;;;5.57;32.73
47082;BME280;33066;49.296;14.470;2023-03-01T07:19:40;97804.19;;;5.90;32.94
47082;BME280;33066;49.296;14.470;2023-03-01T07:22:06;97801.23;;;5.56;32.66
47082;BME280;33066;49.296;14.470;2023-03-01T07:24:32;97795.67;;;5.79;32.39
47082;BME280;33066;49.296;14.470;2023-03-01T07:26:57;97787.64;;;5.60;33.04
47082;BME280;33066;49.296;14.470;2023-03-01T07:29:23;97782.97;;;5.93;32.51
47082;BME280;33066;49.296;14.470;2023-03-01T07:31:48;97785.15;;;5.58;32.47
47082;BME280;33066;49.296;14.470;2023-03-01T07:34:13;97786.56;;;5.65;32.80
47082;BME280;33066;49.296;14.470;2023-03-01T07:36:39;97786.20;;;5.89;33.00
47082;BME280;33066;49.296;14.470;2023-03-01T07:39:04;97781.10;;;6.05;32.63
47082;BME280;33066;49.296;14.470;2023-03-01T07:41:30;97780.10;;;5.95;32.30
47082;BME280;33066;49.296;14.470;2023-03-01T07:43:55;97781.20;;;5.82;33.46
47082;BME280;33066;49.296;14.470;2023-03-01T07:46:20;97775.32;;;5.88;33.11
47082;BME280;33066;49.296;14.470;2023-03-01T07:48:45;97772.93;;;5.89;32.84
47082;BME280;33066;49.296;14.470;2023-03-01T07:51:11;97768.71;;;6.08;32.10
47082;BME280;33066;49.296;14.470;2023-03-01T07:53:35;97768.80;;;6.22;32.00
47082;BME280;33066;49.296;14.470;2023-03-01T07:56:02;97768.98;;;6.29;32.20
47082;BME280;33066;49.296;14.470;2023-03-01T07:58:27;97770.11;;;6.29;32.27
47082;BME280;33066;49.296;14.470;2023-03-01T08:00:52;97767.30;;;6.32;31.79
47082;BME280;33066;49.296;14.470;2023-03-01T08:03:17;97769.87;;;6.18;31.68
47082;BME280;33066;49.296;14.470;2023-03-01T08:05:42;97770.75;;;6.53;31.39
47082;BME280;33066;49.296;14.470;2023-03-01T08:08:08;97770.09;;;6.51;31.16
47082;BME280;33066;49.296;14.470;2023-03-01T08:10:33;97769.17;;;6.58;31.08
47082;BME280;33066;49.296;14.470;2023-03-01T08:12:58;97771.93;;;6.66;30.61
47082;BME280;33066;49.296;14.470;2023-03-01T08:15:23;97774.16;;;6.31;30.75
47082;BME280;33066;49.296;14.470;2023-03-01T08:17:49;97773.31;;;6.60;30.80
47082;BME280;33066;49.296;14.470;2023-03-01T08:20:14;97770.75;;;6.77;30.46
47082;BME280;33066;49.296;14.470;2023-03-01T08:22:39;97770.95;;;6.70;30.25
47082;BME280;33066;49.296;14.470;2023-03-01T08:25:05;97768.85;;;6.99;30.25
47082;BME280;33066;49.296;14.470;2023-03-01T08:27:30;97769.04;;;7.16;30.41
47082;BME280;33066;49.296;14.470;2023-03-01T08:29:55;97767.16;;;6.99;30.30
47082;BME280;33066;49.296;14.470;2023-03-01T08:32:21;97764.65;;;7.30;30.11
47082;BME280;33066;49.296;14.470;2023-03-01T08:34:46;97767.12;;;7.18;30.03
47082;BME280;33066;49.296;14.470;2023-03-01T08:37:11;97763.35;;;7.24;30.21
47082;BME280;33066;49.296;14.470;2023-03-01T08:39:37;97761.60;;;7.08;29.96
47082;BME280;33066;49.296;14.470;2023-03-01T08:42:03;97760.68;;;7.14;29.76
47082;BME280;33066;49.296;14.470;2023-03-01T08:44:28;97766.28;;;7.19;29.40
47082;BME280;33066;49.296;14.470;2023-03-01T08:46:54;97766.28;;;7.37;29.35
47082;BME280;33066;49.296;14.470;2023-03-01T08:49:19;97769.07;;;7.04;29.53
47082;BME280;33066;49.296;14.470;2023-03-01T08:51:46;97767.55;;;7.40;29.55
47082;BME280;33066;49.296;14.470;2023-03-01T08:54:12;97765.33;;;7.40;29.50
47082;BME280;33066;49.296;14.470;2023-03-01T08:56:36;97764.83;;;7.11;29.43
47082;BME280;33066;49.296;14.470;2023-03-01T08:59:01;97759.73;;;7.12;29.43
47082;BME280;33066;49.296;14.470;2023-03-01T09:01:27;97755.05;;;7.25;29.39
47082;BME280;33066;49.296;14.470;2023-03-01T09:03:52;97755.19;;;7.51;29.37
47082;BME280;33066;49.296;14.470;2023-03-01T09:06:18;97753.08;;;7.68;29.20
47082;BME280;33066;49.296;14.470;2023-03-01T09:08:47;97752.60;;;7.67;29.18
47082;BME280;33066;49.296;14.470;2023-03-01T09:11:12;97750.24;;;8.09;29.01
47082;BME280;33066;49.296;14.470;2023-03-01T09:13:34;97744.50;;;7.99;28.97
47082;BME280;33066;49.296;14.470;2023-03-01T09:16:01;97744.64;;;7.88;28.97
47082;BME280;33066;49.296;14.470;2023-03-01T09:18:25;97745.67;;;8.22;28.96
47082;BME280;33066;49.296;14.470;2023-03-01T09:20:51;97740.96;;;8.40;28.86
47082;BME280;33066;49.296;14.470;2023-03-01T09:23:16;97741.02;;;8.55;28.47
47082;BME280;33066;49.296;14.470;2023-03-01T09:25:41;97736.40;;;8.49;28.45
47082;BME280;33066;49.296;14.470;2023-03-01T09:28:06;97736.78;;;8.68;28.37
47082;BME280;33066;49.296;14.470;2023-03-01T09:30:32;97739.05;;;8.19;28.50
47082;BME280;33066;49.296;14.470;2023-03-01T09:32:57;97736.78;;;8.49;28.40
47082;BME280;33066;49.296;14.470;2023-03-01T09:35:22;97731.86;;;8.80;28.42
47082;BME280;33066;49.296;14.470;2023-03-01T09:37:48;97723.16;;;8.36;28.40
47082;BME280;33066;49.296;14.470;2023-03-01T09:40:15;97713.22;;;8.63;28.47
47082;BME280;33066;49.296;14.470;2023-03-01T09:42:52;97706.26;;;8.48;28.07
47082;BME280;33066;49.296;14.470;2023-03-01T09:45:05;97711.92;;;8.44;28.02
47082;BME280;33066;49.296;14.470;2023-03-01T09:47:31;97714.08;;;8.49;28.21
47082;BME280;33066;49.296;14.470;2023-03-01T09:50:02;97711.62;;;8.68;28.09
47082;BME280;33066;49.296;14.470;2023-03-01T09:52:26;97709.72;;;8.78;28.01
47082;BME280;33066;49.296;14.470;2023-03-01T09:54:46;97708.71;;;9.10;27.95
47082;BME280;33066;49.296;14.470;2023-03-01T09:57:18;97700.76;;;9.09;27.67
47082;BME280;33066;49.296;14.470;2023-03-01T09:59:48;97699.42;;;9.41;27.54
47082;BME280;33066;49.296;14.470;2023-03-01T10:02:12;97699.12;;;9.42;27.63
47082;BME280;33066;49.296;14.470;2023-03-01T10:04:37;97698.61;;;9.50;27.57
47082;BME280;33066;49.296;14.470;2023-03-01T10:07:05;97695.30;;;9.67;27.58
47082;BME280;33066;49.296;14.470;2023-03-01T10:09:19;97693.61;;;9.49;27.42
47082;BME280;33066;49.296;14.470;2023-03-01T10:11:48;97699.20;;;9.80;27.51
47082;BME280;33066;49.296;14.470;2023-03-01T10:14:19;97698.18;;;10.04;27.83
47082;BME280;33066;49.296;14.470;2023-03-01T10:16:41;97697.23;;;10.05;27.21
47082;BME280;33066;49.296;14.470;2023-03-01T10:19:03;97693.43;;;10.32;27.52
47082;BME280;33066;49.296;14.470;2023-03-01T10:21:28;97686.78;;;10.21;27.14
47082;BME280;33066;49.296;14.470;2023-03-01T10:23:53;97681.45;;;9.99;27.24
47082;BME280;33066;49.296;14.470;2023-03-01T10:26:32;97668.33;;;10.44;26.96
47082;BME280;33066;49.296;14.470;2023-03-01T10:28:52;97665.03;;;10.26;26.72
47082;BME280;33066;49.296;14.470;2023-03-01T10:31:12;97664.86;;;10.36;26.75
47082;BME280;33066;49.296;14.470;2023-03-01T10:33:37;97656.74;;;10.14;26.60
47082;BME280;33066;49.296;14.470;2023-03-01T10:36:01;97656.69;;;10.73;26.56
47082;BME280;33066;49.296;14.470;2023-03-01T10:38:26;97651.84;;;10.74;26.53
47082;BME280;33066;49.296;14.470;2023-03-01T10:40:54;97643.37;;;11.14;26.17
47082;BME280;33066;49.296;14.470;2023-03-01T10:43:17;97636.59;;;11.23;25.50
47082;BME280;33066;49.296;14.470;2023-03-01T10:45:42;97633.35;;;11.85;25.39
47082;BME280;33066;49.296;14.470;2023-03-01T10:48:14;97633.59;;;12.23;25.11
47082;BME280;33066;49.296;14.470;2023-03-01T10:50:33;97623.79;;;12.62;24.70
47082;BME280;33066;49.296;14.470;2023-03-01T10:52:59;97615.06;;;13.04;23.95
47082;BME280;33066;49.296;14.470;2023-03-01T10:55:27;97612.55;;;12.91;23.72
47082;BME280;33066;49.296;14.470;2023-03-01T10:57:49;97607.75;;;13.68;23.74
47082;BME280;33066;49.296;14.470;2023-03-01T11:00:19;97607.28;;;14.03;23.07
47082;BME280;33066;49.296;14.470;2023-03-01T11:02:40;97596.84;;;14.72;22.48
47082;BME280;33066;49.296;14.470;2023-03-01T11:07:30;97599.40;;;14.15;21.88
47082;BME280;33066;49.296;14.470;2023-03-01T11:09:55;97597.81;;;14.29;22.04
47082;BME280;33066;49.296;14.470;2023-03-01T11:12:21;97593.42;;;14.67;22.03
47082;BME280;33066;49.296;14.470;2023-03-01T11:14:47;97586.40;;;14.85;21.61
47082;BME280;33066;49.296;14.470;2023-03-01T11:17:17;97575.20;;;15.24;21.47
47082;BME280;33066;49.296;14.470;2023-03-01T11:19:37;97566.23;;;15.71;21.32
47082;BME280;33066;49.296;14.470;2023-03-01T11:22:08;97560.38;;;15.74;21.26
47082;BME280;33066;49.296;14.470;2023-03-01T11:24:34;97554.57;;;15.71;20.90
47082;BME280;33066;49.296;14.470;2023-03-01T11:26:54;97550.32;;;16.22;20.94
47082;BME280;33066;49.296;14.470;2023-03-01T11:29:26;97550.50;;;16.58;20.90
47082;BME280;33066;49.296;14.470;2023-03-01T11:31:46;97548.27;;;16.85;20.38
47082;BME280;33066;49.296;14.470;2023-03-01T11:34:13;97548.47;;;17.06;20.20
47082;BME280;33066;49.296;14.470;2023-03-01T11:36:40;97543.83;;;17.07;20.06
47082;BME280;33066;49.296;14.470;2023-03-01T11:39:05;97544.27;;;17.18;20.16
47082;BME280;33066;49.296;14.470;2023-03-01T11:41:28;97545.39;;;17.65;19.99
47082;BME280;33066;49.296;14.470;2023-03-01T11:43:55;97550.95;;;17.62;19.78
47082;BME280;33066;49.296;14.470;2023-03-01T11:48:51;97546.15;;;17.62;19.56
47082;BME280;33066;49.296;14.470;2023-03-01T11:51:11;97536.50;;;17.94;19.47
47082;BME280;33066;49.296;14.470;2023-03-01T11:53:48;97526.53;;;18.01;19.75
47082;BME280;33066;49.296;14.470;2023-03-01T11:56:06;97524.77;;;17.99;19.78
47082;BME280;33066;49.296;14.470;2023-03-01T11:58:38;97532.57;;;17.52;20.20
47082;BME280;33066;49.296;14.470;2023-03-01T12:01:07;97527.04;;;18.01;20.26
47082;BME280;33066;49.296;14.470;2023-03-01T12:03:30;97525.95;;;18.37;20.48
47082;BME280;33066;49.296;14.470;2023-03-01T12:05:51;97521.26;;;18.93;20.15
47082;BME280;33066;49.296;14.470;2023-03-01T12:08:11;97509.03;;;19.14;19.64
47082;BME280;33066;49.296;14.470;2023-03-01T12:10:38;97507.35;;;19.62;19.41
47082;BME280;33066;49.296;14.470;2023-03-01T12:13:10;97502.80;;;19.81;19.46
47082;BME280;33066;49.296;14.470;2023-03-01T12:15:34;97492.34;;;19.72;19.18
47082;BME280;33066;49.296;14.470;2023-03-01T12:18:06;97492.76;;;20.05;18.50
47082;BME280;33066;49.296;14.470;2023-03-01T12:20:20;97489.47;;;20.35;18.43
47082;BME280;33066;49.296;14.470;2023-03-01T12:22:47;97484.75;;;20.64;18.56
47082;BME280;33066;49.296;14.470;2023-03-01T12:25:18;97475.98;;;20.61;18.44
47082;BME280;33066;49.296;14.470;2023-03-01T12:27:46;97473.10;;;20.70;18.29
47082;BME280;33066;49.296;14.470;2023-03-01T12:30:03;97468.37;;;20.78;18.18
47082;BME280;33066;49.296;14.470;2023-03-01T12:32:38;97467.38;;;21.11;18.53
47082;BME280;33066;49.296;14.470;2023-03-01T12:34:57;97470.72;;;21.27;17.96
47082;BME280;33066;49.296;14.470;2023-03-01T12:37:23;97476.92;;;21.64;18.14
47082;BME280;33066;49.296;14.470;2023-03-01T12:39:45;97476.80;;;21.73;18.45
47082;BME280;33066;49.296;14.470;2023-03-01T12:42:10;97482.00;;;21.75;17.76
47082;BME280;33066;49.296;14.470;2023-03-01T12:44:37;97475.73;;;21.76;17.58
47082;BME280;33066;49.296;14.470;2023-03-01T12:47:07;97483.10;;;21.36;17.62
47082;BME280;33066;49.296;14.470;2023-03-01T12:49:24;97472.51;;;21.35;17.19
47082;BME280;33066;49.296;14.470;2023-03-01T12:51:50;97472.63;;;21.14;17.73
47082;BME280;33066;49.296;14.470;2023-03-01T12:54:16;97473.02;;;21.39;17.58
47082;BME280;33066;49.296;14.470;2023-03-01T12:56:36;97467.63;;;21.40;17.96